sensor_id;sensor_type;location;lat;lon;timestamp;pressure;altitude;pressure_sealevel;temperature
71630;BMP280;59479;51.902;8.212;2022-09-09T00:01:07;100262.28;;;18.93
71630;BMP280;59479;51.902;8.212;2022-09-09T00:03:43;100258.00;;;18.93
71630;BMP280;59479;51.902;8.212;2022-09-09T00:06:23;100257.06;;;18.96
71630;BMP280;59479;51.902;8.212;2022-09-09T00:09:04;100258.78;;;18.95
71630;BMP280;59479;51.902;8.212;2022-09-09T00:14:48;100268.19;;;18.93
71630;BMP280;59479;51.902;8.212;2022-09-09T00:17:33;100259.09;;;18.88
71630;BMP280;59479;51.902;8.212;2022-09-09T00:20:09;100267.16;;;18.78
71630;BMP280;59479;51.902;8.212;2022-09-09T00:22:38;100264.72;;;18.75
71630;BMP280;59479;51.902;8.212;2022-09-09T00:25:14;100261.63;;;18.88
71630;BMP280;59479;51.902;8.212;2022-09-09T00:30:29;100251.34;;;18.91
71630;BMP280;59479;51.902;8.212;2022-09-09T00:33:01;100255.63;;;18.89
71630;BMP280;59479;51.902;8.212;2022-09-09T00:35:34;100257.31;;;18.90
71630;BMP280;59479;51.902;8.212;2022-09-09T00:38:10;100252.22;;;18.90
71630;BMP280;59479;51.902;8.212;2022-09-09T00:40:45;100250.78;;;18.83
71630;BMP280;59479;51.902;8.212;2022-09-09T00:43:29;100245.75;;;18.82
71630;BMP280;59479;51.902;8.212;2022-09-09T00:45:59;100248.53;;;18.76
71630;BMP280;59479;51.902;8.212;2022-09-09T00:48:42;100241.44;;;18.84
71630;BMP280;59479;51.902;8.212;2022-09-09T00:51:20;100250.69;;;18.86
71630;BMP280;59479;51.902;8.212;2022-09-09T00:54:10;100242.56;;;18.98
71630;BMP280;59479;51.902;8.212;2022-09-09T00:56:50;100228.88;;;19.00
71630;BMP280;59479;51.902;8.212;2022-09-09T00:59:47;100235.59;;;19.03
71630;BMP280;59479;51.902;8.212;2022-09-09T01:04:54;100247.41;;;19.04
71630;BMP280;59479;51.902;8.212;2022-09-09T01:07:21;100251.63;;;19.05
71630;BMP280;59479;51.902;8.212;2022-09-09T01:09:56;100242.09;;;19.10
71630;BMP280;59479;51.902;8.212;2022-09-09T01:15:05;100238.59;;;19.12
71630;BMP280;59479;51.902;8.212;2022-09-09T01:17:39;100245.53;;;19.09
71630;BMP280;59479;51.902;8.212;2022-09-09T01:20:09;100237.06;;;19.08
71630;BMP280;59479;51.902;8.212;2022-09-09T01:28:25;100237.00;;;19.10
71630;BMP280;59479;51.902;8.212;2022-09-09T01:30:51;100230.19;;;19.10
71630;BMP280;59479;51.902;8.212;2022-09-09T01:33:18;100239.44;;;19.13
71630;BMP280;59479;51.902;8.212;2022-09-09T01:38:26;100247.41;;;19.04
71630;BMP280;59479;51.902;8.212;2022-09-09T01:40:52;100235.47;;;19.06
71630;BMP280;59479;51.902;8.212;2022-09-09T01:43:22;100236.34;;;19.05
71630;BMP280;59479;51.902;8.212;2022-09-09T01:45:51;100236.31;;;19.06
71630;BMP280;59479;51.902;8.212;2022-09-09T01:48:18;100240.41;;;19.09
71630;BMP280;59479;51.902;8.212;2022-09-09T01:50:44;100238.84;;;19.06
71630;BMP280;59479;51.902;8.212;2022-09-09T01:53:10;100251.75;;;19.02
71630;BMP280;59479;51.902;8.212;2022-09-09T01:55:58;100239.78;;;19.04
71630;BMP280;59479;51.902;8.212;2022-09-09T01:58:32;100245.03;;;19.01
71630;BMP280;59479;51.902;8.212;2022-09-09T02:04:44;100250.19;;;18.99
71630;BMP280;59479;51.902;8.212;2022-09-09T02:07:31;100239.84;;;19.02
71630;BMP280;59479;51.902;8.212;2022-09-09T02:10:14;100239.03;;;19.02
71630;BMP280;59479;51.902;8.212;2022-09-09T02:12:47;100227.00;;;19.05
71630;BMP280;59479;51.902;8.212;2022-09-09T02:15:27;100230.69;;;18.97
71630;BMP280;59479;51.902;8.212;2022-09-09T02:18:04;100234.28;;;18.93
71630;BMP280;59479;51.902;8.212;2022-09-09T02:20:37;100236.81;;;18.93
71630;BMP280;59479;51.902;8.212;2022-09-09T02:23:05;100226.63;;;18.93
71630;BMP280;59479;51.902;8.212;2022-09-09T02:25:37;100239.19;;;18.97
71630;BMP280;59479;51.902;8.212;2022-09-09T02:28:10;100252.31;;;18.87
71630;BMP280;59479;51.902;8.212;2022-09-09T02:30:49;100242.72;;;18.93
71630;BMP280;59479;51.902;8.212;2022-09-09T02:33:30;100247.72;;;18.96
71630;BMP280;59479;51.902;8.212;2022-09-09T02:36:11;100240.13;;;18.95
71630;BMP280;59479;51.902;8.212;2022-09-09T02:38:46;100252.91;;;18.93
71630;BMP280;59479;51.902;8.212;2022-09-09T02:41:37;100248.91;;;18.88
71630;BMP280;59479;51.902;8.212;2022-09-09T02:44:27;100242.44;;;18.80
71630;BMP280;59479;51.902;8.212;2022-09-09T02:47:20;100243.09;;;18.85
71630;BMP280;59479;51.902;8.212;2022-09-09T02:50:23;100240.56;;;18.85
71630;BMP280;59479;51.902;8.212;2022-09-09T02:56:29;100243.31;;;18.79
71630;BMP280;59479;51.902;8.212;2022-09-09T02:59:05;100242.41;;;18.81
71630;BMP280;59479;51.902;8.212;2022-09-09T03:01:38;100247.50;;;18.81
71630;BMP280;59479;51.902;8.212;2022-09-09T03:04:06;100246.63;;;18.81
71630;BMP280;59479;51.902;8.212;2022-09-09T03:06:40;100258.44;;;18.83
71630;BMP280;59479;51.902;8.212;2022-09-09T03:09:11;100252.81;;;18.75
71630;BMP280;59479;51.902;8.212;2022-09-09T03:11:47;100256.25;;;18.74
71630;BMP280;59479;51.902;8.212;2022-09-09T03:14:15;100249.44;;;18.75
71630;BMP280;59479;51.902;8.212;2022-09-09T03:16:49;100254.59;;;18.73
71630;BMP280;59479;51.902;8.212;2022-09-09T03:19:20;100257.13;;;18.73
71630;BMP280;59479;51.902;8.212;2022-09-09T03:21:53;100249.38;;;18.76
71630;BMP280;59479;51.902;8.212;2022-09-09T03:24:19;100256.25;;;18.74
71630;BMP280;59479;51.902;8.212;2022-09-09T03:26:47;100250.19;;;18.77
71630;BMP280;59479;51.902;8.212;2022-09-09T03:29:18;100254.94;;;18.86
71630;BMP280;59479;51.902;8.212;2022-09-09T03:31:44;100252.63;;;18.80
71630;BMP280;59479;51.902;8.212;2022-09-09T03:34:10;100242.41;;;18.81
71630;BMP280;59479;51.902;8.212;2022-09-09T03:36:42;100252.03;;;18.73
71630;BMP280;59479;51.902;8.212;2022-09-09T03:39:13;100261.25;;;18.76
71630;BMP280;59479;51.902;8.212;2022-09-09T03:41:47;100258.84;;;18.73
71630;BMP280;59479;51.902;8.212;2022-09-09T03:44:22;100257.13;;;18.73
71630;BMP280;59479;51.902;8.212;2022-09-09T03:46:49;100261.47;;;18.71
71630;BMP280;59479;51.902;8.212;2022-09-09T03:49:21;100253.75;;;18.73
71630;BMP280;59479;51.902;8.212;2022-09-09T03:51:55;100251.16;;;18.74
71630;BMP280;59479;51.902;8.212;2022-09-09T03:54:38;100258.66;;;18.77
71630;BMP280;59479;51.902;8.212;2022-09-09T03:57:20;100244.41;;;18.73
71630;BMP280;59479;51.902;8.212;2022-09-09T04:00:15;100250.19;;;18.77
71630;BMP280;59479;51.902;8.212;2022-09-09T04:02:47;100249.97;;;18.83
71630;BMP280;59479;51.902;8.212;2022-09-09T04:05:23;100238.22;;;18.79
71630;BMP280;59479;51.902;8.212;2022-09-09T04:08:11;100245.06;;;18.78
71630;BMP280;59479;51.902;8.212;2022-09-09T04:10:57;100243.75;;;18.68
71630;BMP280;59479;51.902;8.212;2022-09-09T04:13:29;100237.63;;;18.72
71630;BMP280;59479;51.902;8.212;2022-09-09T04:22:55;100247.81;;;18.72
71630;BMP280;59479;51.902;8.212;2022-09-09T04:26:06;100243.38;;;18.77
71630;BMP280;59479;51.902;8.212;2022-09-09T04:28:54;100250.19;;;18.77
71630;BMP280;59479;51.902;8.212;2022-09-09T04:31:24;100243.09;;;18.85
71630;BMP280;59479;51.902;8.212;2022-09-09T04:33:59;100246.72;;;18.79
71630;BMP280;59479;51.902;8.212;2022-09-09T04:36:33;100248.84;;;18.68
71630;BMP280;59479;51.902;8.212;2022-09-09T04:39:11;100244.28;;;18.76
71630;BMP280;59479;51.902;8.212;2022-09-09T04:41:39;100251.03;;;18.77
71630;BMP280;59479;51.902;8.212;2022-09-09T04:44:19;100253.50;;;18.79
71630;BMP280;59479;51.902;8.212;2022-09-09T04:47:19;100256.75;;;18.82
71630;BMP280;59479;51.902;8.212;2022-09-09T04:53:38;100256.25;;;18.74
71630;BMP280;59479;51.902;8.212;2022-09-09T04:59:27;100258.97;;;18.70
71630;BMP280;59479;51.902;8.212;2022-09-09T05:06:22;100258.66;;;18.77
71630;BMP280;59479;51.902;8.212;2022-09-09T05:13:34;100258.53;;;18.80
71630;BMP280;59479;51.902;8.212;2022-09-09T05:16:30;100260.69;;;18.69
71630;BMP280;59479;51.902;8.212;2022-09-09T05:22:27;100263.34;;;18.66
71630;BMP280;59479;51.902;8.212;2022-09-09T05:25:06;100264.06;;;18.70
71630;BMP280;59479;51.902;8.212;2022-09-09T05:28:05;100257.94;;;18.74
71630;BMP280;59479;51.902;8.212;2022-09-09T05:35:15;100260.59;;;18.71
71630;BMP280;59479;51.902;8.212;2022-09-09T05:38:30;100254.59;;;18.73
71630;BMP280;59479;51.902;8.212;2022-09-09T05:41:29;100263.94;;;18.73
71630;BMP280;59479;51.902;8.212;2022-09-09T05:43:59;100267.25;;;18.75
71630;BMP280;59479;51.902;8.212;2022-09-09T05:46:38;100263.91;;;18.74
71630;BMP280;59479;51.902;8.212;2022-09-09T05:49:06;100267.84;;;18.81
71630;BMP280;59479;51.902;8.212;2022-09-09T05:51:41;100266.44;;;18.74
71630;BMP280;59479;51.902;8.212;2022-09-09T05:54:09;100265.13;;;18.86
71630;BMP280;59479;51.902;8.212;2022-09-09T05:56:34;100265.69;;;18.92
71630;BMP280;59479;51.902;8.212;2022-09-09T05:59:00;100272.81;;;18.84
71630;BMP280;59479;51.902;8.212;2022-09-09T06:01:31;100266.66;;;18.90
71630;BMP280;59479;51.902;8.212;2022-09-09T06:03:57;100266.72;;;18.88
71630;BMP280;59479;51.902;8.212;2022-09-09T06:06:25;100268.19;;;18.93
71630;BMP280;59479;51.902;8.212;2022-09-09T06:08:55;100265.69;;;18.92
71630;BMP280;59479;51.902;8.212;2022-09-09T06:11:27;100269.16;;;18.91
71630;BMP280;59479;51.902;8.212;2022-09-09T06:13:56;100267.50;;;18.90
71630;BMP280;59479;51.902;8.212;2022-09-09T06:16:25;100270.91;;;18.89
71630;BMP280;59479;51.902;8.212;2022-09-09T06:18:52;100269.88;;;18.94
71630;BMP280;59479;51.902;8.212;2022-09-09T06:21:21;100274.84;;;18.97
71630;BMP280;59479;51.902;8.212;2022-09-09T06:23:47;100268.75;;;19.01
71630;BMP280;59479;51.902;8.212;2022-09-09T06:26:19;100266.47;;;18.94
71630;BMP280;59479;51.902;8.212;2022-09-09T06:28:48;100266.47;;;18.94
71630;BMP280;59479;51.902;8.212;2022-09-09T06:31:21;100270.69;;;18.95
71630;BMP280;59479;51.902;8.212;2022-09-09T06:33:52;100271.56;;;18.94
71630;BMP280;59479;51.902;8.212;2022-09-09T06:36:23;100276.75;;;18.93
71630;BMP280;59479;51.902;8.212;2022-09-09T06:38:52;100270.69;;;18.95
71630;BMP280;59479;51.902;8.212;2022-09-09T06:41:26;100278.94;;;19.01
71630;BMP280;59479;51.902;8.212;2022-09-09T06:43:53;100272.94;;;19.02
71630;BMP280;59479;51.902;8.212;2022-09-09T06:46:20;100275.84;;;18.93
71630;BMP280;59479;51.902;8.212;2022-09-09T06:48:52;100274.25;;;18.91
71630;BMP280;59479;51.902;8.212;2022-09-09T06:51:24;100277.41;;;18.97
71630;BMP280;59479;51.902;8.212;2022-09-09T06:53:52;100281.44;;;19.03
71630;BMP280;59479;51.902;8.212;2022-09-09T06:56:21;100282.50;;;18.97
71630;BMP280;59479;51.902;8.212;2022-09-09T06:58:49;100278.38;;;18.93
71630;BMP280;59479;51.902;8.212;2022-09-09T07:01:16;100284.03;;;19.01
71630;BMP280;59479;51.902;8.212;2022-09-09T07:03:46;100288.56;;;18.93
71630;BMP280;59479;51.902;8.212;2022-09-09T07:06:20;100279.66;;;19.05
71630;BMP280;59479;51.902;8.212;2022-09-09T07:08:51;100285.50;;;19.07
71630;BMP280;59479;51.902;8.212;2022-09-09T07:11:24;100289.91;;;19.03
71630;BMP280;59479;51.902;8.212;2022-09-09T07:13:50;100287.47;;;19.00
71630;BMP280;59479;51.902;8.212;2022-09-09T07:16:18;100285.78;;;19.01
71630;BMP280;59479;51.902;8.212;2022-09-09T07:18:46;100289.53;;;19.12
71630;BMP280;59479;51.902;8.212;2022-09-09T07:21:13;100294.72;;;19.11
71630;BMP280;59479;51.902;8.212;2022-09-09T07:23:39;100295.53;;;19.11
71630;BMP280;59479;51.902;8.212;2022-09-09T07:26:09;100292.44;;;19.25
71630;BMP280;59479;51.902;8.212;2022-09-09T07:28:35;100293.19;;;19.27
71630;BMP280;59479;51.902;8.212;2022-09-09T07:31:02;100287.63;;;19.17
71630;BMP280;59479;51.902;8.212;2022-09-09T07:33:29;100295.31;;;19.16
71630;BMP280;59479;51.902;8.212;2022-09-09T07:36:20;100289.88;;;19.25
71630;BMP280;59479;51.902;8.212;2022-09-09T07:38:54;100300.31;;;19.19
71630;BMP280;59479;51.902;8.212;2022-09-09T07:41:40;100298.19;;;19.30
71630;BMP280;59479;51.902;8.212;2022-09-09T07:44:08;100293.59;;;19.38
71630;BMP280;59479;51.902;8.212;2022-09-09T07:46:34;100294.44;;;19.38
71630;BMP280;59479;51.902;8.212;2022-09-09T07:48:59;100295.19;;;19.40
71630;BMP280;59479;51.902;8.212;2022-09-09T07:51:28;100291.41;;;19.29
71630;BMP280;59479;51.902;8.212;2022-09-09T07:53:56;100296.16;;;19.38
71630;BMP280;59479;51.902;8.212;2022-09-09T07:56:24;100296.84;;;19.41
71630;BMP280;59479;51.902;8.212;2022-09-09T07:58:51;100292.47;;;19.44
71630;BMP280;59479;51.902;8.212;2022-09-09T08:01:21;100293.16;;;19.48
71630;BMP280;59479;51.902;8.212;2022-09-09T08:03:54;100290.34;;;19.54
71630;BMP280;59479;51.902;8.212;2022-09-09T08:06:19;100293.28;;;19.45
71630;BMP280;59479;51.902;8.212;2022-09-09T08:08:50;100292.88;;;19.54
71630;BMP280;59479;51.902;8.212;2022-09-09T08:11:16;100295.09;;;19.63
71630;BMP280;59479;51.902;8.212;2022-09-09T08:13:43;100298.56;;;19.60
71630;BMP280;59479;51.902;8.212;2022-09-09T08:16:10;100289.97;;;19.63
71630;BMP280;59479;51.902;8.212;2022-09-09T08:18:36;100298.63;;;19.59
71630;BMP280;59479;51.902;8.212;2022-09-09T08:23:38;100301.19;;;19.78
71630;BMP280;59479;51.902;8.212;2022-09-09T08:26:14;100305.34;;;19.81
71630;BMP280;59479;51.902;8.212;2022-09-09T08:28:43;100301.88;;;19.82
71630;BMP280;59479;51.902;8.212;2022-09-09T08:31:19;100305.53;;;19.77
71630;BMP280;59479;51.902;8.212;2022-09-09T08:33:45;100308.13;;;19.75
71630;BMP280;59479;51.902;8.212;2022-09-09T08:36:17;100304.75;;;19.75
71630;BMP280;59479;51.902;8.212;2022-09-09T08:38:43;100312.34;;;19.76
71630;BMP280;59479;51.902;8.212;2022-09-09T08:41:41;100311.88;;;19.88
71630;BMP280;59479;51.902;8.212;2022-09-09T08:55:31;100329.22;;;19.78
71630;BMP280;59479;51.902;8.212;2022-09-09T08:58:05;100329.94;;;19.82
71630;BMP280;59479;51.902;8.212;2022-09-09T09:00:44;100332.38;;;19.85
71630;BMP280;59479;51.902;8.212;2022-09-09T09:03:22;100327.66;;;19.76
71630;BMP280;59479;51.902;8.212;2022-09-09T09:06:05;100323.81;;;19.87
71630;BMP280;59479;51.902;8.212;2022-09-09T09:08:47;100323.47;;;19.95
71630;BMP280;59479;51.902;8.212;2022-09-09T09:11:16;100318.03;;;20.02
71630;BMP280;59479;51.902;8.212;2022-09-09T09:13:50;100321.19;;;20.07
71630;BMP280;59479;51.902;8.212;2022-09-09T09:16:34;100326.84;;;19.95
71630;BMP280;59479;51.902;8.212;2022-09-09T09:19:03;100331.00;;;19.98
71630;BMP280;59479;51.902;8.212;2022-09-09T09:21:34;100320.34;;;19.88
71630;BMP280;59479;51.902;8.212;2022-09-09T09:24:02;100317.47;;;19.96
71630;BMP280;59479;51.902;8.212;2022-09-09T09:26:34;100311.59;;;19.94
71630;BMP280;59479;51.902;8.212;2022-09-09T09:29:14;100328.16;;;20.04
71630;BMP280;59479;51.902;8.212;2022-09-09T09:31:45;100313.00;;;20.01
71630;BMP280;59479;51.902;8.212;2022-09-09T09:34:13;100322.25;;;20.03
71630;BMP280;59479;51.902;8.212;2022-09-09T09:36:43;100320.44;;;20.05
71630;BMP280;59479;51.902;8.212;2022-09-09T09:39:28;100319.34;;;20.11
71630;BMP280;59479;51.902;8.212;2022-09-09T09:41:54;100316.53;;;20.17
71630;BMP280;59479;51.902;8.212;2022-09-09T09:44:30;100316.13;;;20.25
71630;BMP280;59479;51.902;8.212;2022-09-09T09:47:13;100310.78;;;20.31
71630;BMP280;59479;51.902;8.212;2022-09-09T09:52:33;100302.91;;;20.36
71630;BMP280;59479;51.902;8.212;2022-09-09T09:55:03;100302.75;;;20.39
71630;BMP280;59479;51.902;8.212;2022-09-09T09:58:15;100297.53;;;20.42
71630;BMP280;59479;51.902;8.212;2022-09-09T10:00:50;100297.66;;;20.57
71630;BMP280;59479;51.902;8.212;2022-09-09T10:03:22;100295.88;;;20.59
71630;BMP280;59479;51.902;8.212;2022-09-09T10:05:48;100297.19;;;20.49
71630;BMP280;59479;51.902;8.212;2022-09-09T10:08:15;100302.06;;;20.54
71630;BMP280;59479;51.902;8.212;2022-09-09T10:10:50;100311.22;;;20.59
71630;BMP280;59479;51.902;8.212;2022-09-09T10:13:34;100309.00;;;20.70
71630;BMP280;59479;51.902;8.212;2022-09-09T10:16:44;100309.13;;;20.67
71630;BMP280;59479;51.902;8.212;2022-09-09T10:19:15;100305.25;;;20.77
71630;BMP280;59479;51.902;8.212;2022-09-09T10:25:38;100310.19;;;20.81
71630;BMP280;59479;51.902;8.212;2022-09-09T10:32:56;100320.56;;;20.95
71630;BMP280;59479;51.902;8.212;2022-09-09T10:43:44;100302.66;;;21.13
71630;BMP280;59479;51.902;8.212;2022-09-09T10:52:16;100292.91;;;21.38
71630;BMP280;59479;51.902;8.212;2022-09-09T10:55:00;100279.50;;;21.33
71630;BMP280;59479;51.902;8.212;2022-09-09T10:57:37;100293.03;;;21.35
71630;BMP280;59479;51.902;8.212;2022-09-09T11:00:16;100286.72;;;21.42
71630;BMP280;59479;51.902;8.212;2022-09-09T11:02:42;100285.38;;;21.35
71630;BMP280;59479;51.902;8.212;2022-09-09T11:08:08;100273.16;;;21.58
71630;BMP280;59479;51.902;8.212;2022-09-09T11:10:53;100273.88;;;21.60
71630;BMP280;59479;51.902;8.212;2022-09-09T11:16:05;100263.41;;;21.82
71630;BMP280;59479;51.902;8.212;2022-09-09T11:18:38;100266.97;;;21.79
71630;BMP280;59479;51.902;8.212;2022-09-09T11:21:12;100264.66;;;21.90
71630;BMP280;59479;51.902;8.212;2022-09-09T11:23:43;100259.31;;;21.94
71630;BMP280;59479;51.902;8.212;2022-09-09T11:26:32;100270.03;;;21.86
71630;BMP280;59479;51.902;8.212;2022-09-09T11:34:25;100254.31;;;22.08
71630;BMP280;59479;51.902;8.212;2022-09-09T11:39:37;100264.97;;;22.16
71630;BMP280;59479;51.902;8.212;2022-09-09T11:44:39;100263.31;;;22.15
71630;BMP280;59479;51.902;8.212;2022-09-09T11:47:30;100269.06;;;22.20
71630;BMP280;59479;51.902;8.212;2022-09-09T11:52:44;100268.25;;;22.35
71630;BMP280;59479;51.902;8.212;2022-09-09T11:58:05;100264.28;;;22.30
71630;BMP280;59479;51.902;8.212;2022-09-09T12:03:05;100263.47;;;22.29
71630;BMP280;59479;51.902;8.212;2022-09-09T12:05:39;100260.50;;;22.36
71630;BMP280;59479;51.902;8.212;2022-09-09T12:08:06;100259.50;;;22.39
71630;BMP280;59479;51.902;8.212;2022-09-09T12:10:35;100266.34;;;22.23
71630;BMP280;59479;51.902;8.212;2022-09-09T12:13:19;100264.94;;;22.18
71630;BMP280;59479;51.902;8.212;2022-09-09T12:15:54;100258.81;;;22.20
71630;BMP280;59479;51.902;8.212;2022-09-09T12:18:25;100257.41;;;22.30
71630;BMP280;59479;51.902;8.212;2022-09-09T12:24:09;100256.09;;;22.38
71630;BMP280;59479;51.902;8.212;2022-09-09T12:26:46;100258.28;;;22.46
71630;BMP280;59479;51.902;8.212;2022-09-09T12:29:37;100255.06;;;22.42
71630;BMP280;59479;51.902;8.212;2022-09-09T12:32:07;100257.34;;;22.32
71630;BMP280;59479;51.902;8.212;2022-09-09T12:34:55;100246.44;;;22.28
71630;BMP280;59479;51.902;8.212;2022-09-09T12:37:32;100257.47;;;22.13
71630;BMP280;59479;51.902;8.212;2022-09-09T12:40:02;100259.81;;;22.18
71630;BMP280;59479;51.902;8.212;2022-09-09T12:42:29;100251.56;;;22.28
71630;BMP280;59479;51.902;8.212;2022-09-09T12:44:59;100255.78;;;22.29
71630;BMP280;59479;51.902;8.212;2022-09-09T12:50:17;100256.19;;;22.37
71630;BMP280;59479;51.902;8.212;2022-09-09T12:52:44;100254.88;;;22.30
71630;BMP280;59479;51.902;8.212;2022-09-09T12:55:21;100258.00;;;22.35
71630;BMP280;59479;51.902;8.212;2022-09-09T12:57:50;100253.72;;;22.36
71630;BMP280;59479;51.902;8.212;2022-09-09T13:00:18;100258.28;;;22.31
71630;BMP280;59479;51.902;8.212;2022-09-09T13:05:38;100256.38;;;22.34
71630;BMP280;59479;51.902;8.212;2022-09-09T13:08:10;100255.13;;;22.41
71630;BMP280;59479;51.902;8.212;2022-09-09T13:10:57;100250.75;;;22.43
71630;BMP280;59479;51.902;8.212;2022-09-09T13:13:34;100246.94;;;22.50
71630;BMP280;59479;51.902;8.212;2022-09-09T13:16:02;100241.41;;;22.42
71630;BMP280;59479;51.902;8.212;2022-09-09T13:18:31;100250.09;;;22.55
71630;BMP280;59479;51.902;8.212;2022-09-09T13:20:58;100237.28;;;22.55
71630;BMP280;59479;51.902;8.212;2022-09-09T13:23:27;100227.59;;;22.60
71630;BMP280;59479;51.902;8.212;2022-09-09T13:25:56;100239.16;;;22.67
71630;BMP280;59479;51.902;8.212;2022-09-09T13:28:24;100219.16;;;22.73
71630;BMP280;59479;51.902;8.212;2022-09-09T13:31:20;100214.19;;;22.85
71630;BMP280;59479;51.902;8.212;2022-09-09T13:33:46;100219.66;;;22.95
71630;BMP280;59479;51.902;8.212;2022-09-09T13:36:12;100211.16;;;22.94
71630;BMP280;59479;51.902;8.212;2022-09-09T13:41:21;100216.84;;;22.99
71630;BMP280;59479;51.902;8.212;2022-09-09T13:43:47;100212.34;;;23.03
71630;BMP280;59479;51.902;8.212;2022-09-09T13:49:19;100203.47;;;22.94
71630;BMP280;59479;51.902;8.212;2022-09-09T13:51:47;100212.66;;;23.12
71630;BMP280;59479;51.902;8.212;2022-09-09T13:54:28;100211.63;;;23.01
71630;BMP280;59479;51.902;8.212;2022-09-09T13:56:56;100206.91;;;22.93
71630;BMP280;59479;51.902;8.212;2022-09-09T14:00:00;100216.56;;;22.88
71630;BMP280;59479;51.902;8.212;2022-09-09T14:02:26;100215.63;;;22.76
71630;BMP280;59479;51.902;8.212;2022-09-09T14:04:51;100215.75;;;22.88
71630;BMP280;59479;51.902;8.212;2022-09-09T14:07:20;100213.63;;;22.80
71630;BMP280;59479;51.902;8.212;2022-09-09T14:09:50;100223.13;;;22.78
71630;BMP280;59479;51.902;8.212;2022-09-09T14:12:17;100218.63;;;22.82
71630;BMP280;59479;51.902;8.212;2022-09-09T14:14:42;100212.22;;;22.75
71630;BMP280;59479;51.902;8.212;2022-09-09T14:17:09;100224.94;;;22.77
71630;BMP280;59479;51.902;8.212;2022-09-09T14:19:37;100224.94;;;22.77
71630;BMP280;59479;51.902;8.212;2022-09-09T14:22:12;100218.31;;;22.88
71630;BMP280;59479;51.902;8.212;2022-09-09T14:24:37;100241.16;;;22.62
71630;BMP280;59479;51.902;8.212;2022-09-09T14:27:06;100237.69;;;22.63
71630;BMP280;59479;51.902;8.212;2022-09-09T14:29:34;100236.03;;;22.62
71630;BMP280;59479;51.902;8.212;2022-09-09T14:31:59;100221.66;;;22.75
71630;BMP280;59479;51.902;8.212;2022-09-09T14:34:26;100230.22;;;22.74
71630;BMP280;59479;51.902;8.212;2022-09-09T14:36:51;100232.47;;;22.79
71630;BMP280;59479;51.902;8.212;2022-09-09T14:39:17;100231.41;;;22.68
71630;BMP280;59479;51.902;8.212;2022-09-09T14:41:42;100233.72;;;22.73
71630;BMP280;59479;51.902;8.212;2022-09-09T14:44:08;100232.06;;;22.72
71630;BMP280;59479;51.902;8.212;2022-09-09T14:46:33;100232.81;;;22.58
71630;BMP280;59479;51.902;8.212;2022-09-09T14:48:59;100230.09;;;22.61
71630;BMP280;59479;51.902;8.212;2022-09-09T14:51:25;100229.84;;;22.66
71630;BMP280;59479;51.902;8.212;2022-09-09T14:53:56;100234.41;;;22.61
71630;BMP280;59479;51.902;8.212;2022-09-09T14:56:28;100227.38;;;22.64
71630;BMP280;59479;51.902;8.212;2022-09-09T14:58:55;100223.38;;;22.74
71630;BMP280;59479;51.902;8.212;2022-09-09T15:01:21;100233.81;;;22.71
71630;BMP280;59479;51.902;8.212;2022-09-09T15:06:20;100237.44;;;22.52
71630;BMP280;59479;51.902;8.212;2022-09-09T15:08:47;100238.94;;;22.56
71630;BMP280;59479;51.902;8.212;2022-09-09T15:11:14;100227.78;;;22.57
71630;BMP280;59479;51.902;8.212;2022-09-09T15:13:41;100228.75;;;22.70
71630;BMP280;59479;51.902;8.212;2022-09-09T15:16:09;100236.84;;;22.77
71630;BMP280;59479;51.902;8.212;2022-09-09T15:18:35;100245.44;;;22.77
71630;BMP280;59479;51.902;8.212;2022-09-09T15:21:02;100248.94;;;22.76
71630;BMP280;59479;51.902;8.212;2022-09-09T15:23:31;100245.59;;;22.74
71630;BMP280;59479;51.902;8.212;2022-09-09T15:26:00;100240.41;;;22.75
71630;BMP280;59479;51.902;8.212;2022-09-09T15:28:25;100239.81;;;22.70
71630;BMP280;59479;51.902;8.212;2022-09-09T15:30:52;100242.81;;;22.63
71630;BMP280;59479;51.902;8.212;2022-09-09T15:33:19;100237.34;;;22.69
71630;BMP280;59479;51.902;8.212;2022-09-09T15:35:47;100233.72;;;22.73
71630;BMP280;59479;51.902;8.212;2022-09-09T15:38:47;100226.69;;;22.76
71630;BMP280;59479;51.902;8.212;2022-09-09T15:41:13;100228.25;;;22.78
71630;BMP280;59479;51.902;8.212;2022-09-09T15:43:39;100232.63;;;22.77
71630;BMP280;59479;51.902;8.212;2022-09-09T15:48:41;100226.44;;;22.80
71630;BMP280;59479;51.902;8.212;2022-09-09T15:51:07;100231.38;;;22.83
71630;BMP280;59479;51.902;8.212;2022-09-09T15:53:34;100228.06;;;22.81
71630;BMP280;59479;51.902;8.212;2022-09-09T15:56:00;100223.56;;;22.71
71630;BMP280;59479;51.902;8.212;2022-09-09T15:58:26;100218.34;;;22.73
71630;BMP280;59479;51.902;8.212;2022-09-09T16:01:07;100217.09;;;22.79
71630;BMP280;59479;51.902;8.212;2022-09-09T16:03:40;100215.34;;;22.80
71630;BMP280;59479;51.902;8.212;2022-09-09T16:06:17;100223.13;;;22.78
71630;BMP280;59479;51.902;8.212;2022-09-09T16:08:44;100225.06;;;22.90
71630;BMP280;59479;51.902;8.212;2022-09-09T16:11:13;100221.31;;;22.80
71630;BMP280;59479;51.902;8.212;2022-09-09T16:13:40;100225.59;;;22.80
71630;BMP280;59479;51.902;8.212;2022-09-09T16:16:07;100235.94;;;22.78
71630;BMP280;59479;51.902;8.212;2022-09-09T16:18:39;100226.78;;;22.75
71630;BMP280;59479;51.902;8.212;2022-09-09T16:21:05;100231.38;;;22.83
71630;BMP280;59479;51.902;8.212;2022-09-09T16:23:32;100233.72;;;22.73
71630;BMP280;59479;51.902;8.212;2022-09-09T16:25:58;100229.09;;;22.79
71630;BMP280;59479;51.902;8.212;2022-09-09T16:28:23;100240.31;;;22.77
71630;BMP280;59479;51.902;8.212;2022-09-09T16:30:49;100241.97;;;22.77
71630;BMP280;59479;51.902;8.212;2022-09-09T16:33:15;100245.59;;;22.74
71630;BMP280;59479;51.902;8.212;2022-09-09T16:35:43;100266.94;;;22.74
71630;BMP280;59479;51.902;8.212;2022-09-09T16:38:09;100262.22;;;22.67
71630;BMP280;59479;51.902;8.212;2022-09-09T16:40:35;100267.94;;;22.41
71630;BMP280;59479;51.902;8.212;2022-09-09T16:43:02;100273.88;;;22.26
71630;BMP280;59479;51.902;8.212;2022-09-09T16:45:27;100275.78;;;22.38
71630;BMP280;59479;51.902;8.212;2022-09-09T16:47:53;100265.28;;;22.27
71630;BMP280;59479;51.902;8.212;2022-09-09T16:50:19;100284.41;;;22.20